ADDS METAR Data INFO
IDs: Format: Raw Decoded Include TAF

Data at: 0010 UTC 25 Nov 2017

KLAR 242353Z AUTO 36007KT 10SM SCT070 03/01 A3002 RMK AO2 WSHFT 2240 SLP123 60000 T00280011 10128 20028 52019
KLAR 242300Z AUTO 30013KT 10SM FEW048 SCT065 BKN085 06/01 A3001 RMK AO2 WSHFT 2240 T00560011
KLAR 242253Z AUTO 31016KT 10SM FEW048 SCT065 BKN090 06/01 A3000 RMK AO2 PK WND 30033/2209 WSHFT 2204 RAB40E47 SLP106 P0000 T00610011
KLAR 242224Z AUTO 36021G28KT 10SM BKN100 BKN110 06/01 A3000 RMK AO2 PK WND 30033/2209 WSHFT 2204 T00560006
KLAR 242153Z AUTO 30020KT 10SM SCT065 BKN100 BKN120 09/M01 A2997 RMK AO2 PK WND 31033/2129 SLP086 T00941006
KLAR 242053Z AUTO 32024G30KT 10SM SCT065 12/M01 A2995 RMK AO2 PK WND 31034/2011 SLP073 60000 T01171006 53002
KLAR 241953Z AUTO 31021G30KT 10SM SCT060 BKN075 BKN095 10/00 A2995 RMK AO2 PK WND 29036/1856 RAB31E43 SLP070 P0000 T01000000
KLAR 241853Z AUTO 29026G35KT 10SM FEW075 12/M02 A2994 RMK AO2 PK WND 28039/1825 SLP062 T01171022
KLAR 241753Z AUTO 28032G40KT 10SM CLR 12/M01 A2994 RMK AO2 PK WND 28042/1656 SLP064 T01221011 10133 20061 53005
KLAR 241653Z AUTO 27030G38KT 10SM CLR 13/M02 A2993 RMK AO2 PK WND 27038/1653 SLP057 T01281017
KLAR 241553Z AUTO 27016KT 10SM CLR 09/M02 A2994 RMK AO2 PK WND 25028/1538 SLP068 T00941022
KLAR 241453Z AUTO 24013G19KT 10SM CLR 08/M03 A2993 RMK AO2 SLP068 T00781028 53010
KLAR 241353Z AUTO 23018KT 10SM CLR 06/M03 A2990 RMK AO2 PK WND 25028/1302 SLP063 T00611028
KLAR 241253Z AUTO 25021G29KT 10SM CLR 08/M03 A2989 RMK AO2 PK WND 25033/1157 SLP051 T00781028
KLAR 241153Z AUTO 25027G35KT 10SM CLR 08/M02 A2989 RMK AO2 PK WND 25035/1151 SLP050 T00781022 10100 20067 58022
KLAR 241053Z AUTO 25019G24KT 10SM CLR 08/M02 A2992 RMK AO2 SLP057 T00781017
KLAR 240953Z AUTO 23015KT 10SM CLR 07/M01 A2994 RMK AO2 SLP062 T00671011
KLAR 240853Z AUTO 20013KT 10SM BKN075 07/M01 A2997 RMK AO2 SLP072 T00721011 58017
KLAR 240753Z AUTO 00000KT 10SM OVC080 10/M01 A3001 RMK AO2 SLP079 T01001006
KLAR 240653Z AUTO 28004KT 10SM BKN070 OVC110 09/M01 A3003 RMK AO2 SLP086 T00891006 401560017
KLAR 240553Z AUTO 22006KT 10SM CLR 08/M01 A3003 RMK AO2 PK WND 22027/0527 SLP091 T00831011 10111 20078 58015
KLAR 240453Z AUTO 25010KT 10SM CLR 09/M02 A3005 RMK AO2 SLP103 T00891017
KLAR 240353Z AUTO 25014KT 10SM CLR 09/M02 A3006 RMK AO2 SLP117 T00891017
KLAR 240253Z AUTO 22018KT 10SM BKN100 10/M02 A3008 RMK AO2 SLP131 T01001017 56007
KLAR 240153Z AUTO 20015G24KT 10SM CLR 10/M01 A3010 RMK AO2 PK WND 21028/0102 SLP140 T01001011
KLAR 240053Z AUTO 20021G27KT 10SM FEW120 11/M01 A3009 RMK AO2 PK WND 21029/0023 SLP132 T01061011
KLAR 232353Z AUTO 19013KT 10SM OVC120 11/M01 A3011 RMK AO2 PK WND 21029/2305 SLP140 T01111011 10156 20111 53003
KLAR 232253Z AUTO 24020KT 10SM CLR 13/M03 A3011 RMK AO2 PK WND 23036/2202 SLP137 T01281028
KLAR 232153Z AUTO 25031G38KT 10SM CLR 14/M02 A3009 RMK AO2 PK WND 25040/2136 SLP126 T01391022
KLAR 232053Z AUTO 25026G35KT 10SM CLR 13/M02 A3010 RMK AO2 PK WND 26035/2034 SLP133 T01331017 57030
KLAR 231953Z AUTO 26021G27KT 10SM CLR 14/M01 A3014 RMK AO2 PK WND 27037/1903 SLP144 T01391011
KLAR 231853Z AUTO 25024G32KT 10SM CLR 15/M01 A3017 RMK AO2 PK WND 24033/1830 SLP145 T01501006
KLAR 231753Z AUTO 25015G25KT 10SM CLR 13/00 A3021 RMK AO2 PK WND 25027/1701 SLP165 T01330000 10133 20022 58012
KLAR 231653Z AUTO 26021KT 10SM CLR 12/01 A3023 RMK AO2 PK WND 26030/1635 SLP180 T01170006
KLAR 231553Z AUTO 24012KT 10SM CLR 08/02 A3025 RMK AO2 SLP200 T00830017
KLAR 231453Z AUTO 25011KT 10SM CLR 05/00 A3026 RMK AO2 SLP210 T00500000 56007
KLAR 231353Z AUTO 20010KT 10SM CLR 04/01 A3026 RMK AO2 SLP211 T00390006
KLAR 231253Z AUTO 25009KT 10SM CLR 04/01 A3027 RMK AO2 SLP215 T00440011